createdAt,value
2023-05-21T00:02:00.281Z,16.69
2023-05-21T00:04:30.039Z,16.62
2023-05-21T00:07:00.061Z,16.74
2023-05-21T00:09:27.435Z,16.72
2023-05-21T00:11:54.909Z,17.02
2023-05-21T00:14:22.556Z,17.02
2023-05-21T00:16:49.534Z,17.13
2023-05-21T00:19:17.421Z,17.04
2023-05-21T00:21:46.058Z,16.95
2023-05-21T00:24:13.459Z,16.85
2023-05-21T00:26:40.881Z,16.92
2023-05-21T00:29:08.334Z,17.10
2023-05-21T00:31:35.416Z,17.25
2023-05-21T00:34:03.069Z,17.24
2023-05-21T00:36:31.049Z,17.39
2023-05-21T00:38:58.293Z,17.22
2023-05-21T00:41:26.372Z,17.29
2023-05-21T00:43:53.727Z,17.20
2023-05-21T00:46:21.686Z,17.16
2023-05-21T00:48:49.739Z,17.21
2023-05-21T00:51:18.713Z,16.92
2023-05-21T00:53:46.848Z,16.93
2023-05-21T00:56:14.224Z,17.17
2023-05-21T00:58:42.154Z,17.01
2023-05-21T01:01:13.883Z,17.10
2023-05-21T01:03:42.635Z,17.35
2023-05-21T01:06:10.760Z,17.38
2023-05-21T01:08:40.987Z,17.18
2023-05-21T01:11:09.984Z,17.38
2023-05-21T01:13:40.048Z,17.36
2023-05-21T01:16:09.000Z,17.28
2023-05-21T01:18:38.293Z,17.08
2023-05-21T01:21:07.598Z,17.12
2023-05-21T01:23:35.107Z,17.36
2023-05-21T01:26:02.610Z,17.02
2023-05-21T01:28:34.587Z,17.26
2023-05-21T01:31:08.270Z,17.19
2023-05-21T01:33:43.914Z,17.13
2023-05-21T01:36:22.108Z,17.00
2023-05-21T01:39:04.483Z,16.85
2023-05-21T01:41:35.403Z,16.90
2023-05-21T01:44:04.453Z,16.93
2023-05-21T01:46:34.053Z,16.88
2023-05-21T01:49:01.536Z,16.98
2023-05-21T01:51:28.840Z,16.92
2023-05-21T01:53:56.192Z,16.94
2023-05-21T01:56:26.114Z,17.00
2023-05-21T01:58:57.011Z,16.94
2023-05-21T02:01:24.175Z,16.73
2023-05-21T02:03:51.787Z,16.96
2023-05-21T02:06:18.904Z,16.78
2023-05-21T02:08:46.434Z,17.02
2023-05-21T02:11:13.411Z,16.91
2023-05-21T02:13:42.699Z,16.91
2023-05-21T02:16:15.241Z,16.99
2023-05-21T02:18:46.630Z,16.64
2023-05-21T02:21:13.946Z,16.85
2023-05-21T02:23:42.803Z,16.76
2023-05-21T02:26:09.980Z,16.68
2023-05-21T02:28:37.529Z,16.59
2023-05-21T02:31:04.689Z,16.47
2023-05-21T02:33:32.272Z,16.69
2023-05-21T02:35:59.183Z,16.67
2023-05-21T02:38:26.797Z,16.54
2023-05-21T02:40:53.879Z,16.67
2023-05-21T02:43:21.376Z,16.39
2023-05-21T02:45:48.291Z,16.51
2023-05-21T02:48:16.058Z,16.42
2023-05-21T02:50:43.049Z,16.48
2023-05-21T02:53:10.231Z,16.55
2023-05-21T02:55:37.961Z,16.65
2023-05-21T02:58:05.593Z,16.81
2023-05-21T03:00:32.781Z,16.80
2023-05-21T03:03:00.476Z,16.73
2023-05-21T03:05:27.444Z,16.70
2023-05-21T03:07:55.029Z,16.65
2023-05-21T03:10:22.159Z,16.45
2023-05-21T03:12:49.497Z,16.54
2023-05-21T03:15:16.582Z,16.66
2023-05-21T03:17:44.609Z,16.43
2023-05-21T03:20:16.700Z,16.37
2023-05-21T03:22:44.868Z,16.69
2023-05-21T03:25:12.938Z,16.76
2023-05-21T03:27:40.541Z,16.70
2023-05-21T03:30:08.138Z,16.87
2023-05-21T03:32:38.139Z,17.02
2023-05-21T03:35:06.012Z,17.16
2023-05-21T03:37:33.260Z,16.89
2023-05-21T03:40:00.891Z,17.06
2023-05-21T03:42:28.189Z,17.24
2023-05-21T03:44:55.257Z,16.97
2023-05-21T03:47:23.048Z,17.10
2023-05-21T03:49:50.203Z,17.62
2023-05-21T03:52:17.456Z,18.02
2023-05-21T03:54:44.757Z,18.72
2023-05-21T03:57:12.136Z,19.48
2023-05-21T03:59:39.088Z,19.75
2023-05-21T04:02:07.089Z,20.01
2023-05-21T04:04:34.083Z,20.27
2023-05-21T04:07:01.397Z,20.31
2023-05-21T04:09:29.061Z,20.18
2023-05-21T04:11:56.563Z,20.09
2023-05-21T04:14:24.010Z,20.03
2023-05-21T04:16:51.817Z,19.83
2023-05-21T04:19:19.179Z,20.34
2023-05-21T04:21:46.658Z,20.06
2023-05-21T04:24:14.063Z,19.96
2023-05-21T04:26:42.675Z,19.95
2023-05-21T04:29:10.264Z,19.92
2023-05-21T04:31:37.881Z,19.99
2023-05-21T04:34:05.272Z,19.80
2023-05-21T04:36:34.099Z,20.24
2023-05-21T04:39:01.937Z,20.35
2023-05-21T04:41:29.267Z,20.54
2023-05-21T04:43:56.345Z,20.34
2023-05-21T04:46:25.606Z,20.30
2023-05-21T04:48:55.315Z,19.90
2023-05-21T04:51:24.928Z,19.91
2023-05-21T04:53:52.302Z,20.52
2023-05-21T04:56:19.727Z,20.45
2023-05-21T04:58:48.099Z,20.71
2023-05-21T05:01:16.442Z,20.28
2023-05-21T05:03:43.742Z,20.73
2023-05-21T05:06:10.994Z,20.11
2023-05-21T05:08:38.320Z,19.65
2023-05-21T05:11:05.681Z,19.70
2023-05-21T05:13:32.619Z,20.04
2023-05-21T05:16:00.539Z,20.24
2023-05-21T05:18:27.560Z,20.33
2023-05-21T05:20:54.956Z,20.51
2023-05-21T05:23:22.087Z,20.29
2023-05-21T05:25:49.644Z,21.15
2023-05-21T05:28:16.998Z,21.36
2023-05-21T05:30:44.760Z,21.20
2023-05-21T05:33:12.170Z,19.52
2023-05-21T05:35:39.466Z,19.64
2023-05-21T05:38:09.175Z,19.50
2023-05-21T05:40:36.852Z,19.76
2023-05-21T05:43:04.169Z,19.39
2023-05-21T05:45:31.586Z,19.36
2023-05-21T05:47:58.749Z,19.14
2023-05-21T05:50:26.782Z,19.24
2023-05-21T05:52:53.977Z,19.59
2023-05-21T05:55:22.202Z,19.57
2023-05-21T05:57:49.346Z,19.37
2023-05-21T06:00:17.593Z,19.01
2023-05-21T06:02:44.919Z,19.37
2023-05-21T06:05:12.352Z,19.51
2023-05-21T06:07:40.764Z,19.37
2023-05-21T06:10:08.709Z,19.32
2023-05-21T06:12:35.867Z,19.67
2023-05-21T06:15:03.588Z,19.89
2023-05-21T06:17:31.873Z,19.66
2023-05-21T06:19:59.611Z,19.82
2023-05-21T06:22:26.777Z,19.90
2023-05-21T06:24:54.096Z,19.79
2023-05-21T06:27:21.092Z,20.05
2023-05-21T06:29:48.497Z,20.55
2023-05-21T06:32:15.545Z,20.41
2023-05-21T06:34:42.906Z,20.60
2023-05-21T06:37:10.245Z,20.44
2023-05-21T06:39:37.644Z,20.95
2023-05-21T06:42:04.792Z,20.91
2023-05-21T06:44:32.316Z,21.05
2023-05-21T06:46:59.466Z,21.04
2023-05-21T06:49:26.791Z,20.92
2023-05-21T06:51:54.035Z,21.04
2023-05-21T06:54:21.318Z,20.71
2023-05-21T06:56:48.544Z,20.69
2023-05-21T06:59:16.930Z,20.96
2023-05-21T07:01:44.621Z,20.69
2023-05-21T07:04:12.576Z,20.77
2023-05-21T07:06:40.231Z,20.88
2023-05-21T07:09:07.754Z,21.14
2023-05-21T07:11:35.232Z,20.83
2023-05-21T07:14:04.137Z,21.83
2023-05-21T07:16:31.456Z,21.66
2023-05-21T07:18:59.034Z,21.96
2023-05-21T07:21:26.308Z,21.68
2023-05-21T07:23:54.229Z,22.14
2023-05-21T07:26:21.804Z,22.13
2023-05-21T07:28:49.370Z,22.15
2023-05-21T07:31:16.854Z,22.10
2023-05-21T07:33:44.596Z,22.13
2023-05-21T07:36:12.024Z,21.84
2023-05-21T07:38:40.366Z,22.53
2023-05-21T07:41:07.479Z,22.42
2023-05-21T07:43:35.585Z,22.67
2023-05-21T07:46:03.203Z,22.72
2023-05-21T07:48:30.572Z,22.51
2023-05-21T07:50:58.850Z,21.91
2023-05-21T07:53:26.249Z,22.61
2023-05-21T07:55:53.591Z,22.31
2023-05-21T07:58:21.093Z,22.76
2023-05-21T08:00:48.448Z,22.74
2023-05-21T08:03:18.196Z,22.52
2023-05-21T08:05:50.957Z,22.93
2023-05-21T08:08:19.611Z,23.20
2023-05-21T08:10:48.095Z,22.98
2023-05-21T08:13:16.674Z,22.78
2023-05-21T08:15:44.232Z,23.18
2023-05-21T08:18:12.193Z,22.80
2023-05-21T08:20:39.436Z,23.58
2023-05-21T08:23:07.144Z,23.23
2023-05-21T08:25:34.973Z,23.19
2023-05-21T08:28:02.982Z,22.92
2023-05-21T08:32:57.649Z,23.13
2023-05-21T08:35:24.999Z,23.23
2023-05-21T08:37:52.760Z,23.38
2023-05-21T08:40:20.098Z,23.60
2023-05-21T08:42:51.129Z,24.30
2023-05-21T08:45:22.691Z,24.65
2023-05-21T08:47:59.627Z,24.29
2023-05-21T08:50:28.064Z,24.49
2023-05-21T08:52:55.769Z,24.31
2023-05-21T08:55:23.813Z,24.27
2023-05-21T08:57:51.242Z,24.46
2023-05-21T09:00:20.832Z,24.06
2023-05-21T09:02:48.229Z,24.21
2023-05-21T09:05:15.941Z,24.03
2023-05-21T09:07:49.816Z,24.06
2023-05-21T09:10:24.516Z,24.60
2023-05-21T09:12:51.974Z,24.52
2023-05-21T09:15:19.286Z,24.51
2023-05-21T09:17:48.379Z,24.70
2023-05-21T09:20:18.976Z,24.84
2023-05-21T09:22:48.336Z,24.88
2023-05-21T09:25:21.793Z,25.20
2023-05-21T09:27:49.326Z,25.39
2023-05-21T09:30:18.119Z,24.99
2023-05-21T09:32:46.711Z,24.88
2023-05-21T09:35:15.835Z,24.55
2023-05-21T09:37:45.355Z,24.79
2023-05-21T09:40:20.227Z,24.12
2023-05-21T09:42:52.551Z,24.42
2023-05-21T09:45:20.679Z,24.42
2023-05-21T09:47:49.391Z,24.88
2023-05-21T09:50:28.141Z,24.92
2023-05-21T09:52:56.274Z,24.84
2023-05-21T09:55:24.398Z,25.39
2023-05-21T09:57:52.166Z,25.21
2023-05-21T10:00:23.914Z,25.48
2023-05-21T10:02:56.090Z,25.34
2023-05-21T10:05:29.687Z,25.13
2023-05-21T10:08:04.865Z,25.14
2023-05-21T10:10:32.741Z,25.27
2023-05-21T10:13:09.453Z,24.78
2023-05-21T10:15:43.349Z,25.02
2023-05-21T10:18:12.589Z,25.07
2023-05-21T10:20:40.402Z,24.99
2023-05-21T10:23:08.088Z,24.96
2023-05-21T10:25:35.774Z,25.46
2023-05-21T10:28:03.382Z,25.65
2023-05-21T10:30:30.405Z,25.99
2023-05-21T10:32:58.823Z,26.03
2023-05-21T10:35:26.226Z,25.31
2023-05-21T10:37:54.840Z,25.36
2023-05-21T10:40:22.130Z,25.08
2023-05-21T10:43:23.478Z,25.16
2023-05-21T10:46:17.216Z,25.62
2023-05-21T10:49:09.139Z,25.84
2023-05-21T10:52:18.514Z,25.79
2023-05-21T10:55:01.389Z,25.67
2023-05-21T10:58:13.553Z,25.41
2023-05-21T11:00:42.875Z,25.98
2023-05-21T11:03:13.120Z,25.47
2023-05-21T11:05:42.599Z,25.93
2023-05-21T11:08:25.235Z,26.48
2023-05-21T11:10:58.470Z,25.94
2023-05-21T11:13:27.056Z,26.30
2023-05-21T11:16:01.522Z,26.17
2023-05-21T11:18:40.438Z,25.57
2023-05-21T11:21:14.849Z,25.82
2023-05-21T11:23:51.518Z,26.04
2023-05-21T11:26:21.934Z,26.03
2023-05-21T11:29:08.754Z,25.72
2023-05-21T11:31:39.990Z,25.66
2023-05-21T11:34:14.334Z,26.03
2023-05-21T11:36:48.131Z,26.07
2023-05-21T11:39:18.150Z,26.16
2023-05-21T11:41:52.463Z,25.49
2023-05-21T11:44:22.329Z,25.94
2023-05-21T11:46:50.012Z,25.71
2023-05-21T11:49:28.659Z,25.39
2023-05-21T11:51:56.733Z,26.24
2023-05-21T11:54:26.181Z,25.89
2023-05-21T11:56:54.987Z,25.52
2023-05-21T11:59:21.967Z,26.05
2023-05-21T12:01:49.292Z,26.04
2023-05-21T12:04:16.392Z,25.86
2023-05-21T12:06:43.964Z,25.99
2023-05-21T12:09:11.521Z,26.09
2023-05-21T12:11:41.952Z,26.18
2023-05-21T12:14:10.585Z,26.46
2023-05-21T12:16:39.569Z,25.89
2023-05-21T12:19:07.173Z,25.46
2023-05-21T12:21:35.857Z,25.72
2023-05-21T12:24:03.466Z,26.06
2023-05-21T12:26:33.325Z,26.01
2023-05-21T12:29:00.585Z,26.91
2023-05-21T12:31:31.130Z,26.82
2023-05-21T12:33:58.569Z,26.29
2023-05-21T12:36:31.867Z,26.44
2023-05-21T12:38:59.082Z,26.57
2023-05-21T12:41:27.024Z,26.80
2023-05-21T12:43:53.979Z,26.25
2023-05-21T12:46:23.458Z,26.27
2023-05-21T12:48:54.022Z,26.18
2023-05-21T12:51:21.393Z,26.02
2023-05-21T12:53:48.983Z,26.44
2023-05-21T12:56:17.147Z,26.13
2023-05-21T12:58:50.470Z,26.24
2023-05-21T13:01:18.640Z,26.61
2023-05-21T13:03:45.821Z,26.25
2023-05-21T13:06:13.446Z,26.70
2023-05-21T13:08:40.707Z,26.55
2023-05-21T13:11:08.037Z,26.35
2023-05-21T13:13:35.032Z,26.40
2023-05-21T13:16:02.488Z,26.04
2023-05-21T13:18:29.545Z,26.11
2023-05-21T13:20:56.986Z,26.80
2023-05-21T13:23:24.918Z,26.84
2023-05-21T13:25:52.427Z,27.12
2023-05-21T13:28:19.632Z,26.51
2023-05-21T13:30:47.334Z,26.72
2023-05-21T13:33:14.714Z,26.72
2023-05-21T13:35:42.096Z,26.50
2023-05-21T13:38:09.737Z,26.89
2023-05-21T13:40:39.036Z,26.62
2023-05-21T13:43:06.752Z,26.89
2023-05-21T13:45:34.862Z,26.57
2023-05-21T13:48:01.964Z,26.70
2023-05-21T13:50:29.665Z,26.53
2023-05-21T13:52:57.111Z,26.55
2023-05-21T13:55:24.383Z,26.35
2023-05-21T13:57:51.692Z,26.59
2023-05-21T14:00:19.258Z,26.23
2023-05-21T14:02:46.343Z,26.31
2023-05-21T14:05:14.350Z,26.75
2023-05-21T14:07:42.344Z,26.33
2023-05-21T14:10:09.983Z,26.65
2023-05-21T14:12:38.630Z,26.61
2023-05-21T14:15:06.894Z,27.08
2023-05-21T14:17:33.973Z,26.82
2023-05-21T14:20:01.244Z,26.70
2023-05-21T14:22:28.612Z,27.07
2023-05-21T14:24:56.377Z,26.94
2023-05-21T14:27:23.450Z,26.69
2023-05-21T14:29:51.186Z,27.20
2023-05-21T14:32:19.377Z,27.61
2023-05-21T14:34:46.706Z,27.28
2023-05-21T14:37:14.171Z,26.79
2023-05-21T14:39:41.461Z,26.74
2023-05-21T14:42:08.527Z,26.83
2023-05-21T14:44:36.227Z,27.14
2023-05-21T14:47:03.538Z,26.89
2023-05-21T14:49:31.105Z,26.45
2023-05-21T14:51:58.526Z,26.49
2023-05-21T14:54:25.892Z,26.28
2023-05-21T14:56:53.646Z,26.37
2023-05-21T14:59:21.125Z,26.32
2023-05-21T15:01:48.249Z,26.31
2023-05-21T15:04:15.655Z,26.48
2023-05-21T15:06:42.998Z,26.55
2023-05-21T15:09:10.793Z,25.94
2023-05-21T15:11:39.902Z,26.18
2023-05-21T15:14:07.350Z,26.47
2023-05-21T15:16:34.460Z,26.03
2023-05-21T15:19:01.894Z,26.52
2023-05-21T15:21:29.819Z,26.26
2023-05-21T15:23:57.144Z,26.14
2023-05-21T15:26:25.687Z,26.31
2023-05-21T15:28:53.300Z,26.43
2023-05-21T15:31:20.385Z,26.72
2023-05-21T15:33:47.884Z,26.37
2023-05-21T15:36:15.561Z,26.62
2023-05-21T15:38:42.810Z,26.90
2023-05-21T15:41:09.914Z,27.09
2023-05-21T15:43:38.429Z,27.19
2023-05-21T15:46:05.653Z,27.99
2023-05-21T15:48:33.076Z,28.21
2023-05-21T15:51:00.599Z,29.05
2023-05-21T15:53:27.907Z,29.85
2023-05-21T15:55:54.950Z,29.08
2023-05-21T15:58:23.041Z,30.07
2023-05-21T16:00:50.109Z,30.61
2023-05-21T16:03:17.516Z,31.19
2023-05-21T16:05:44.875Z,30.92
2023-05-21T16:08:12.392Z,31.69
2023-05-21T16:10:40.146Z,31.05
2023-05-21T16:13:08.211Z,30.43
2023-05-21T16:15:35.335Z,30.07
2023-05-21T16:18:03.136Z,29.89
2023-05-21T16:20:31.166Z,30.56
2023-05-21T16:22:58.589Z,32.15
2023-05-21T16:25:25.758Z,31.06
2023-05-21T16:27:54.812Z,31.08
2023-05-21T16:30:21.928Z,30.66
2023-05-21T16:32:49.526Z,29.54
2023-05-21T16:35:17.362Z,29.48
2023-05-21T16:37:45.138Z,29.37
2023-05-21T16:40:13.149Z,30.46
2023-05-21T16:42:40.896Z,30.63
2023-05-21T16:45:08.930Z,29.48
2023-05-21T16:47:38.873Z,28.20
2023-05-21T16:50:07.329Z,29.13
2023-05-21T16:52:35.105Z,29.28
2023-05-21T16:55:02.701Z,27.96
2023-05-21T16:57:30.492Z,29.10
2023-05-21T16:59:57.827Z,28.96
2023-05-21T17:02:25.692Z,28.24
2023-05-21T17:04:53.123Z,28.07
2023-05-21T17:07:20.956Z,28.00
2023-05-21T17:09:48.674Z,28.03
2023-05-21T17:12:16.430Z,27.49
2023-05-21T17:14:43.636Z,28.35
2023-05-21T17:17:11.209Z,28.07
2023-05-21T17:19:43.931Z,27.10
2023-05-21T17:22:13.832Z,28.06
2023-05-21T17:24:41.416Z,27.46
2023-05-21T17:27:09.004Z,27.67
2023-05-21T17:29:36.456Z,27.04
2023-05-21T17:32:07.468Z,26.71
2023-05-21T17:34:34.809Z,26.27
2023-05-21T17:37:02.836Z,27.12
2023-05-21T17:39:30.029Z,26.19
2023-05-21T17:41:57.613Z,25.47
2023-05-21T17:44:24.799Z,24.53
2023-05-21T17:46:53.091Z,24.33
2023-05-21T17:49:20.098Z,23.67
2023-05-21T17:51:48.211Z,23.57
2023-05-21T17:54:15.990Z,23.28
2023-05-21T17:56:45.518Z,23.11
2023-05-21T17:59:14.758Z,22.89
2023-05-21T18:01:42.395Z,22.65
2023-05-21T18:04:11.008Z,22.62
2023-05-21T18:06:41.617Z,22.33
2023-05-21T18:09:10.652Z,22.11
2023-05-21T18:11:39.247Z,22.01
2023-05-21T18:14:06.300Z,21.89
2023-05-21T18:16:33.900Z,21.85
2023-05-21T18:19:05.765Z,21.53
2023-05-21T18:21:35.857Z,21.47
2023-05-21T18:24:03.398Z,21.49
2023-05-21T18:26:30.815Z,21.31
2023-05-21T18:28:58.493Z,21.28
2023-05-21T18:31:26.121Z,21.16
2023-05-21T18:33:53.331Z,21.02
2023-05-21T18:36:20.572Z,20.96
2023-05-21T18:38:48.513Z,20.77
2023-05-21T18:41:16.156Z,20.54
2023-05-21T18:43:43.201Z,20.62
2023-05-21T18:46:11.041Z,20.39
2023-05-21T18:48:38.250Z,20.47
2023-05-21T18:51:05.565Z,20.23
2023-05-21T18:53:33.132Z,20.17
2023-05-21T18:56:00.528Z,20.18
2023-05-21T18:58:29.349Z,20.09
2023-05-21T19:00:57.020Z,20.09
2023-05-21T19:03:24.062Z,19.91
2023-05-21T19:05:51.620Z,19.85
2023-05-21T19:08:18.807Z,19.79
2023-05-21T19:10:46.236Z,19.70
2023-05-21T19:13:13.420Z,19.54
2023-05-21T19:15:41.110Z,19.61
2023-05-21T19:18:08.753Z,19.55
2023-05-21T19:20:37.080Z,19.51
2023-05-21T19:23:04.711Z,19.38
2023-05-21T19:25:32.503Z,19.52
2023-05-21T19:28:00.954Z,19.32
2023-05-21T19:30:28.474Z,19.28
2023-05-21T19:32:56.545Z,19.34
2023-05-21T19:35:23.963Z,19.30
2023-05-21T19:37:51.820Z,19.21
2023-05-21T19:40:19.361Z,19.24
2023-05-21T19:42:46.685Z,19.11
2023-05-21T19:45:15.662Z,19.08
2023-05-21T19:47:43.556Z,19.03
2023-05-21T19:50:11.927Z,19.14
2023-05-21T19:52:39.624Z,18.91
2023-05-21T19:55:08.894Z,18.78
2023-05-21T19:57:39.839Z,18.75
2023-05-21T20:00:10.574Z,18.66
2023-05-21T20:02:37.717Z,18.73
2023-05-21T20:05:05.480Z,18.66
2023-05-21T20:07:32.968Z,18.60
2023-05-21T20:10:01.085Z,18.46
2023-05-21T20:12:28.465Z,18.47
2023-05-21T20:14:56.980Z,18.47
2023-05-21T20:17:24.809Z,18.49
2023-05-21T20:19:52.323Z,18.33
2023-05-21T20:22:19.776Z,18.37
2023-05-21T20:24:47.226Z,18.37
2023-05-21T20:27:19.675Z,18.27
2023-05-21T20:29:47.687Z,18.28
2023-05-21T20:32:14.763Z,18.24
2023-05-21T20:34:50.732Z,18.16
2023-05-21T20:37:29.255Z,18.09
2023-05-21T20:39:58.165Z,18.03
2023-05-21T20:42:28.652Z,17.90
2023-05-21T20:44:59.987Z,17.83
2023-05-21T20:47:30.260Z,17.88
2023-05-21T20:50:03.270Z,17.70
2023-05-21T20:52:31.035Z,17.76
2023-05-21T20:54:59.875Z,17.83
2023-05-21T20:57:28.678Z,17.73
2023-05-21T20:59:56.473Z,17.60
2023-05-21T21:02:23.684Z,17.69
2023-05-21T21:04:51.772Z,17.58
2023-05-21T21:07:19.349Z,17.66
2023-05-21T21:09:47.500Z,17.68
2023-05-21T21:12:25.938Z,17.61
2023-05-21T21:14:54.217Z,17.43
2023-05-21T21:17:22.251Z,17.51
2023-05-21T21:19:49.822Z,17.37
2023-05-21T21:22:18.414Z,17.44
2023-05-21T21:24:46.306Z,17.32
2023-05-21T21:27:13.664Z,17.13
2023-05-21T21:29:41.059Z,17.27
2023-05-21T21:32:08.712Z,17.36
2023-05-21T21:34:36.145Z,17.39
2023-05-21T21:37:03.240Z,17.15
2023-05-21T21:39:31.197Z,17.18
2023-05-21T21:41:58.263Z,17.14
2023-05-21T21:44:25.774Z,17.18
2023-05-21T21:46:53.209Z,17.09
2023-05-21T21:49:20.662Z,17.13
2023-05-21T21:51:48.593Z,17.00
2023-05-21T21:54:16.565Z,16.98
2023-05-21T21:56:43.617Z,16.96
2023-05-21T21:59:10.979Z,16.92
2023-05-21T22:01:38.623Z,16.89
2023-05-21T22:04:06.077Z,16.95
2023-05-21T22:06:33.259Z,16.94
2023-05-21T22:09:01.510Z,16.87
2023-05-21T22:11:28.614Z,17.00
2023-05-21T22:13:56.275Z,16.97
2023-05-21T22:16:27.881Z,16.86
2023-05-21T22:18:55.355Z,16.91
2023-05-21T22:21:27.308Z,16.93
2023-05-21T22:23:55.882Z,16.94
2023-05-21T22:26:23.393Z,16.97
2023-05-21T22:28:51.565Z,16.95
2023-05-21T22:31:19.250Z,16.84
2023-05-21T22:33:46.913Z,16.77
2023-05-21T22:36:13.947Z,16.79
2023-05-21T22:38:41.603Z,16.62
2023-05-21T22:41:08.889Z,16.57
2023-05-21T22:43:37.251Z,16.70
2023-05-21T22:46:04.685Z,16.52
2023-05-21T22:48:32.054Z,16.60
2023-05-21T22:51:02.037Z,16.61
2023-05-21T22:53:29.908Z,16.47
2023-05-21T22:55:56.906Z,16.47
2023-05-21T22:58:24.169Z,16.26
2023-05-21T23:00:51.451Z,16.39
2023-05-21T23:03:18.844Z,16.35
2023-05-21T23:05:46.318Z,16.14
2023-05-21T23:08:14.157Z,16.23
2023-05-21T23:10:41.479Z,16.01
2023-05-21T23:13:09.089Z,15.99
2023-05-21T23:15:39.046Z,15.99
2023-05-21T23:18:07.976Z,15.80
2023-05-21T23:20:35.366Z,15.91
2023-05-21T23:23:03.186Z,16.00
2023-05-21T23:25:30.237Z,16.00
2023-05-21T23:27:57.493Z,15.92
2023-05-21T23:30:24.989Z,15.93
2023-05-21T23:32:52.333Z,15.99
2023-05-21T23:35:20.147Z,15.85
2023-05-21T23:37:47.897Z,15.54
2023-05-21T23:40:15.053Z,15.53
2023-05-21T23:42:42.552Z,15.33
2023-05-21T23:45:10.534Z,15.26
2023-05-21T23:47:37.791Z,15.43
2023-05-21T23:50:05.509Z,15.23
2023-05-21T23:52:33.484Z,15.28
2023-05-21T23:55:00.426Z,15.24
2023-05-21T23:57:27.664Z,15.18
2023-05-21T23:59:55.248Z,15.13
